Union, WA

4:28 PM PDT on August 20, 2014 (GMT -0700)
Potlatch | Change Station
CLOSE
Current Station
Personal Weather Station
Location: Hoodsport, WA
Elevation: 9 ft
Nearby Weather Stations

Elev 9 ft 47.36 °N, 123.16 °W | Updated 1 minute ago

Clear
Clear
71.7 °F
Feels Like 76 °F
N
4.0
Wind Variable Wind from SE
Gusts 5.0 mph

Today
High -- | Low -- °F
--% Chance of Precip.
Yesterday
High -- | Low -- °F
Precip. -- in
6:15 AM 8:14 PM
Waning Crescent, 18% visible
Pressure 29.96 in
Visibility 10.0 miles
Clouds Clear
Heat Index 76 °F
Dew Point 57 °F
Humidity 60%
Rainfall 0.00 in
Snow Depth Not available.
UV 6 out of 12
Pollen 3.10 out of 12
PM2.5 Good
Flu Activity Not available.
METAR KSHN 202253Z AUTO 24013KT 200V260 10SM CLR 21/11 A2996 RMK AO2 SLP144 T02110106 TSNO

More Conditions Fewer Conditions

Pressure 29.96 in
Visibility 10.0 miles
Clouds Clear
Heat Index 76 °F
Dew Point 57 °F
Humidity 60%
Rainfall 0.00 in
Snow Depth Not available.
UV 6 out of 12
Pollen 3.10 out of 12
PM2.5 Good
Flu Activity Not available.
METAR KSHN 202253Z AUTO 24013KT 200V260 10SM CLR 21/11 A2996 RMK AO2 SLP144 T02110106 TSNO

More Conditions Fewer Conditions

10-Day Weather Forecast

Almanac

Astronomy

Aug. 20, 2014 Rise Set
Actual Time 6:15 AM PDT 8:14 PM PDT
Civil Twilight 5:42 AM PDT 8:47 PM PDT
Nautical Twilight 5:01 AM PDT 9:28 PM PDT
Astronomical Twilight 4:16 AM PDT 10:13 PM PDT
Moon 1:52 AM PDT 5:11 PM PDT
Length of Visible Light 15h 05m
Length of Day
13h 59m
Tomorrow will be 3m 9s shorter.
Waning Crescent, 18% of the Moon is Illuminated
Today
Waning Crescent
Aug 25
New
Sep 2
First Quarter
Sep 8
Full
Sep 15
Last Quarter

Today's Extremes

State Highs State Lows

Community

WunderPhotos

Upload Photos

1,745,798 photos uploaded!

Nearby

Air Quality

  Air Quality AQ Index Pollutant
Yesterday Good
PM2.5
Yesterday Good
OZONE
Current Good
PM2.5

Snow Depth

Station Depth Elevation
Dungeness 4 in 4100 ft
Burnt Mountain 1 in 4200 ft
Alpine Meadows 0 in 3500 ft
Meadows Pass 0 in 3500 ft
Olallie Meadows 2 in 3700 ft

Earthquake Activity

City Distance Mag. Time & Date
No recent earthquake activity has been reported nearby.
Minimum magnitude displayed is 2.5.

Coastal Water Temperatures

Place Temperature
Port Townsend, WA 53.1 °F
Seattle, WA 55.9 °F
Friday Harbor, WA 52.0 °F
Tacoma, WA 55.9 °F

Nearby Weather Stations